Time,TemperatureF,DewpointF,PressureIn,WindDirection,WindDirectionDegrees,WindSpeedMPH,WindSpeedGustMPH,Humidity,HourlyPrecipIn,Conditions,Clouds,dailyrainin,SoftwareType,DateUTC
2013-04-02 00:00:00,58.0,51.0,-100.00,North,10,6.0,-999.0,78,0.00,,,0.00,,2013-04-02 05:00:00,
2013-04-02 00:32:00,58.0,51.0,-100.00,North,10,6.0,-999.0,78,0.00,,,0.00,,2013-04-02 05:32:00,
2013-04-02 00:43:00,58.0,51.0,-100.00,North,10,6.0,-999.0,78,0.00,,,0.00,,2013-04-02 05:43:00,
2013-04-02 00:52:00,58.0,51.0,-100.00,North,10,6.0,-999.0,78,0.00,,,0.00,,2013-04-02 05:52:00,
2013-04-02 01:00:00,60.0,51.0,-100.00,North,6,6.0,-999.0,74,0.00,,,0.00,,2013-04-02 06:00:00,
2013-04-02 01:32:00,60.0,51.0,-100.00,North,6,6.0,-999.0,74,0.00,,,0.00,,2013-04-02 06:32:00,
2013-04-02 01:42:00,60.0,51.0,-100.00,North,6,6.0,-999.0,74,0.00,,,0.00,,2013-04-02 06:42:00,
2013-04-02 01:52:00,60.0,51.0,-100.00,North,6,6.0,-999.0,74,0.00,,,0.00,,2013-04-02 06:52:00,
2013-04-02 03:00:00,59.0,52.0,-100.00,ESE,122,5.0,-999.0,75,0.00,,,0.00,,2013-04-02 08:00:00,
2013-04-02 03:32:00,59.0,52.0,-100.00,ESE,122,5.0,-999.0,75,0.00,,,0.00,,2013-04-02 08:32:00,
2013-04-02 03:43:00,59.0,52.0,-100.00,ESE,122,5.0,-999.0,75,0.00,,,0.00,,2013-04-02 08:43:00,
2013-04-02 03:52:00,59.0,52.0,-100.00,ESE,122,5.0,-999.0,75,0.00,,,0.00,,2013-04-02 08:52:00,
2013-04-02 04:00:00,59.0,52.0,-100.00,ESE,105,5.0,-999.0,76,0.00,,,0.00,,2013-04-02 09:00:00,
2013-04-02 04:32:00,59.0,52.0,-100.00,ESE,105,5.0,-999.0,76,0.00,,,0.00,,2013-04-02 09:32:00,
2013-04-02 04:43:00,59.0,52.0,-100.00,ESE,105,5.0,-999.0,76,0.00,,,0.00,,2013-04-02 09:43:00,
2013-04-02 04:53:00,59.0,52.0,-100.00,ESE,105,5.0,-999.0,76,0.00,,,0.00,,2013-04-02 09:53:00,
2013-04-02 05:00:00,59.0,51.0,-100.00,ESE,110,8.0,-999.0,75,0.00,,,0.00,,2013-04-02 10:00:00,
2013-04-02 05:33:00,59.0,51.0,-100.00,ESE,110,8.0,-999.0,75,0.00,,,0.00,,2013-04-02 10:33:00,
2013-04-02 05:42:00,59.0,51.0,-100.00,ESE,110,8.0,-999.0,75,0.00,,,0.00,,2013-04-02 10:42:00,
2013-04-02 05:52:00,59.0,51.0,-100.00,ESE,110,8.0,-999.0,75,0.00,,,0.00,,2013-04-02 10:52:00,
2013-04-02 06:00:00,57.0,49.0,-100.00,ESE,106,7.0,-999.0,75,0.00,,,0.00,,2013-04-02 11:00:00,
2013-04-02 06:33:00,57.0,49.0,-100.00,ESE,106,7.0,-999.0,75,0.00,,,0.00,,2013-04-02 11:33:00,
2013-04-02 06:43:00,57.0,49.0,-100.00,ESE,106,7.0,-999.0,75,0.00,,,0.00,,2013-04-02 11:43:00,
2013-04-02 06:53:00,57.0,49.0,-100.00,ESE,106,7.0,-999.0,75,0.00,,,0.00,,2013-04-02 11:53:00,
2013-04-02 07:00:00,56.0,46.0,-100.00,ESE,113,8.0,-999.0,68,0.00,,,0.00,,2013-04-02 12:00:00,
2013-04-02 07:32:00,56.0,46.0,-100.00,ESE,113,8.0,-999.0,68,0.00,,,0.00,,2013-04-02 12:32:00,
2013-04-02 07:42:00,56.0,46.0,-100.00,ESE,113,8.0,-999.0,68,0.00,,,0.00,,2013-04-02 12:42:00,
2013-04-02 07:53:00,56.0,46.0,-100.00,ESE,113,8.0,-999.0,68,0.00,,,0.00,,2013-04-02 12:53:00,
2013-04-02 08:00:00,55.0,45.0,-100.00,East,101,7.0,-999.0,69,0.00,,,0.00,,2013-04-02 13:00:00,
2013-04-02 08:33:00,55.0,45.0,-100.00,East,101,7.0,-999.0,69,0.00,,,0.00,,2013-04-02 13:33:00,
2013-04-02 08:42:00,55.0,45.0,-100.00,East,101,7.0,-999.0,69,0.00,,,0.00,,2013-04-02 13:42:00,
2013-04-02 08:52:00,55.0,45.0,-100.00,East,101,7.0,-999.0,69,0.00,,,0.00,,2013-04-02 13:52:00,
2013-04-02 09:00:00,54.0,45.0,-100.00,ESE,107,8.0,-999.0,71,0.00,,,0.00,,2013-04-02 14:00:00,
2013-04-02 09:32:00,54.0,45.0,-100.00,ESE,107,8.0,-999.0,71,0.00,,,0.00,,2013-04-02 14:32:00,
2013-04-02 09:42:00,54.0,45.0,-100.00,ESE,107,8.0,-999.0,71,0.00,,,0.00,,2013-04-02 14:42:00,
2013-04-02 09:52:00,54.0,45.0,-100.00,ESE,107,8.0,-999.0,71,0.00,,,0.00,,2013-04-02 14:52:00,
2013-04-02 10:00:00,53.0,45.0,-100.00,ESE,103,10.0,-999.0,75,0.00,,,0.00,,2013-04-02 15:00:00,
2013-04-02 10:33:00,53.0,45.0,-100.00,ESE,103,10.0,-999.0,75,0.00,,,0.00,,2013-04-02 15:33:00,
2013-04-02 10:43:00,53.0,45.0,-100.00,ESE,103,10.0,-999.0,75,0.00,,,0.00,,2013-04-02 15:43:00,
2013-04-02 10:58:00,53.0,45.0,-100.00,ESE,103,10.0,-999.0,75,0.00,,,0.00,,2013-04-02 15:58:00,
2013-04-02 11:00:00,52.0,47.0,-100.00,ESE,111,7.0,-999.0,85,0.02,,,0.02,,2013-04-02 16:00:00,
2013-04-02 11:36:00,52.0,47.0,-100.00,ESE,111,7.0,-999.0,85,0.02,,,0.02,,2013-04-02 16:36:00,
2013-04-02 11:44:00,52.0,47.0,-100.00,ESE,111,7.0,-999.0,85,0.02,,,0.02,,2013-04-02 16:44:00,
2013-04-02 11:53:00,52.0,47.0,-100.00,ESE,111,7.0,-999.0,85,0.02,,,0.02,,2013-04-02 16:53:00,
2013-04-02 12:00:00,52.0,48.0,-100.00,ENE,63,7.0,-999.0,88,0.04,,,0.06,,2013-04-02 17:00:00,
2013-04-02 12:34:00,52.0,48.0,-100.00,ENE,63,7.0,-999.0,88,0.04,,,0.06,,2013-04-02 17:34:00,
2013-04-02 12:43:00,52.0,48.0,-100.00,ENE,63,7.0,-999.0,88,0.04,,,0.06,,2013-04-02 17:43:00,
2013-04-02 12:55:00,52.0,48.0,-100.00,ENE,63,7.0,-999.0,88,0.04,,,0.06,,2013-04-02 17:55:00,
2013-04-02 13:00:00,51.0,45.0,-100.00,East,83,7.0,-999.0,80,0.00,,,0.06,,2013-04-02 18:00:00,
2013-04-02 13:34:00,51.0,45.0,-100.00,East,83,7.0,-999.0,80,0.00,,,0.06,,2013-04-02 18:34:00,
2013-04-02 13:43:00,51.0,45.0,-100.00,East,83,7.0,-999.0,80,0.00,,,0.06,,2013-04-02 18:43:00,
2013-04-02 13:57:00,51.0,45.0,-100.00,East,83,7.0,-999.0,80,0.00,,,0.06,,2013-04-02 18:57:00,
2013-04-02 14:00:00,52.0,44.0,-100.00,ESE,107,8.0,-999.0,74,0.00,,,0.06,,2013-04-02 19:00:00,
2013-04-02 14:34:00,52.0,44.0,-100.00,ESE,107,8.0,-999.0,74,0.00,,,0.06,,2013-04-02 19:34:00,
2013-04-02 14:57:00,52.0,44.0,-100.00,ESE,107,8.0,-999.0,74,0.00,,,0.06,,2013-04-02 19:57:00,
2013-04-02 15:00:00,52.0,42.0,-100.00,ENE,73,12.0,-999.0,68,0.00,,,0.06,,2013-04-02 20:00:00,
2013-04-02 15:33:00,52.0,42.0,-100.00,ENE,73,12.0,-999.0,68,0.00,,,0.06,,2013-04-02 20:33:00,
2013-04-02 15:54:00,52.0,42.0,-100.00,ENE,73,12.0,-999.0,68,0.00,,,0.06,,2013-04-02 20:54:00,
2013-04-02 17:00:00,54.0,41.0,-100.00,ENE,62,10.0,-999.0,62,0.00,,,0.06,,2013-04-02 22:00:00,
2013-04-02 17:33:00,54.0,41.0,-100.00,ENE,62,10.0,-999.0,62,0.00,,,0.06,,2013-04-02 22:33:00,
2013-04-02 17:44:00,54.0,41.0,-100.00,ENE,62,10.0,-999.0,62,0.00,,,0.06,,2013-04-02 22:44:00,
2013-04-02 17:54:00,54.0,41.0,-100.00,ENE,62,10.0,-999.0,62,0.00,,,0.06,,2013-04-02 22:54:00,
2013-04-02 18:00:00,51.0,42.0,-100.00,ENE,62,10.0,-999.0,71,0.00,,,0.06,,2013-04-02 23:00:00,
2013-04-02 18:35:00,51.0,42.0,-100.00,ENE,62,10.0,-999.0,71,0.00,,,0.06,,2013-04-02 23:35:00,
2013-04-02 18:43:00,51.0,42.0,-100.00,ENE,62,10.0,-999.0,71,0.00,,,0.06,,2013-04-02 23:43:00,
2013-04-02 18:54:00,51.0,42.0,-100.00,ENE,62,10.0,-999.0,71,0.00,,,0.06,,2013-04-02 23:54:00,
2013-04-02 19:00:00,49.0,43.0,-100.00,NNE,25,8.0,-999.0,79,0.01,,,0.07,,2013-04-03 00:00:00,
2013-04-02 19:47:00,49.0,43.0,-100.00,NNE,25,8.0,-999.0,79,0.01,,,0.07,,2013-04-03 00:47:00,
2013-04-02 19:56:00,49.0,43.0,-100.00,NNE,25,8.0,-999.0,79,0.01,,,0.07,,2013-04-03 00:56:00,
2013-04-02 20:00:00,44.0,44.0,-100.00,North,10,9.0,-999.0,99,0.28,,,0.35,,2013-04-03 01:00:00,
2013-04-02 20:33:00,44.0,44.0,-100.00,North,10,9.0,-999.0,99,0.28,,,0.35,,2013-04-03 01:33:00,
2013-04-02 20:43:00,44.0,44.0,-100.00,North,10,9.0,-999.0,99,0.28,,,0.35,,2013-04-03 01:43:00,
2013-04-02 20:53:00,44.0,44.0,-100.00,North,10,9.0,-999.0,99,0.28,,,0.35,,2013-04-03 01:53:00,
2013-04-02 21:00:00,45.0,45.0,-100.00,SE,145,10.0,-999.0,100,0.15,,,0.50,,2013-04-03 02:00:00,
2013-04-02 21:34:00,45.0,45.0,-100.00,SE,145,10.0,-999.0,100,0.15,,,0.50,,2013-04-03 02:34:00,
2013-04-02 21:44:00,45.0,45.0,-100.00,SE,145,10.0,-999.0,100,0.15,,,0.50,,2013-04-03 02:44:00,
2013-04-02 21:53:00,45.0,45.0,-100.00,SE,145,10.0,-999.0,100,0.15,,,0.50,,2013-04-03 02:53:00,
2013-04-02 22:00:00,44.0,44.0,-100.00,ESE,120,11.0,-999.0,100,0.04,,,0.54,,2013-04-03 03:00:00,
2013-04-02 22:37:00,44.0,44.0,-100.00,ESE,120,11.0,-999.0,100,0.04,,,0.54,,2013-04-03 03:37:00,
2013-04-02 22:44:00,44.0,44.0,-100.00,ESE,120,11.0,-999.0,100,0.04,,,0.54,,2013-04-03 03:44:00,
2013-04-02 22:54:00,44.0,44.0,-100.00,ESE,120,11.0,-999.0,100,0.04,,,0.54,,2013-04-03 03:54:00,
2013-04-02 23:00:00,44.0,44.0,-100.00,ENE,64,7.0,-999.0,100,0.00,,,0.54,,2013-04-03 04:00:00,
2013-04-02 23:33:00,44.0,44.0,-100.00,ENE,64,7.0,-999.0,100,0.00,,,0.54,,2013-04-03 04:33:00,
2013-04-02 23:43:00,44.0,44.0,-100.00,ENE,64,7.0,-999.0,100,0.00,,,0.54,,2013-04-03 04:43:00,
2013-04-02 23:53:00,44.0,44.0,-100.00,ENE,64,7.0,-999.0,100,0.00,,,0.54,,2013-04-03 04:53:00,